createdAt,value
2023-04-16T00:00:59.679Z,9.20
2023-04-16T00:03:26.519Z,9.20
2023-04-16T00:05:55.786Z,9.20
2023-04-16T00:08:26.401Z,9.20
2023-04-16T00:10:53.948Z,9.20
2023-04-16T00:13:21.001Z,9.20
2023-04-16T00:15:47.659Z,9.10
2023-04-16T00:18:14.588Z,9.10
2023-04-16T00:20:41.287Z,9.10
2023-04-16T00:23:07.986Z,9.10
2023-04-16T00:25:34.721Z,9.10
2023-04-16T00:28:01.372Z,9.10
2023-04-16T00:30:28.046Z,9.20
2023-04-16T00:32:54.801Z,9.10
2023-04-16T00:35:21.628Z,9.10
2023-04-16T00:37:48.436Z,9.10
2023-04-16T00:40:15.271Z,9.10
2023-04-16T00:42:41.924Z,9.20
2023-04-16T00:45:09.574Z,9.10
2023-04-16T00:47:36.498Z,9.10
2023-04-16T00:50:04.582Z,9.20
2023-04-16T00:52:33.091Z,9.20
2023-04-16T00:54:59.955Z,9.20
2023-04-16T00:57:27.047Z,9.20
2023-04-16T00:59:54.677Z,9.20
2023-04-16T01:02:21.511Z,9.20
2023-04-16T01:04:48.267Z,9.20
2023-04-16T01:07:14.934Z,9.20
2023-04-16T01:09:41.556Z,9.20
2023-04-16T01:12:08.285Z,9.20
2023-04-16T01:14:36.381Z,9.20
2023-04-16T01:17:03.925Z,9.20
2023-04-16T01:19:36.244Z,9.20
2023-04-16T01:22:03.781Z,9.20
2023-04-16T01:24:31.108Z,9.20
2023-04-16T01:26:59.406Z,9.20
2023-04-16T01:29:26.768Z,9.20
2023-04-16T01:31:54.289Z,9.20
2023-04-16T01:34:21.112Z,9.20
2023-04-16T01:36:47.769Z,9.20
2023-04-16T01:39:16.276Z,9.20
2023-04-16T01:41:43.592Z,9.20
2023-04-16T01:44:10.417Z,9.20
2023-04-16T01:46:38.187Z,9.20
2023-04-16T01:49:06.544Z,9.20
2023-04-16T01:51:33.415Z,9.20
2023-04-16T01:54:00.297Z,9.20
2023-04-16T01:56:27.047Z,9.20
2023-04-16T01:58:53.782Z,9.10
2023-04-16T02:01:20.718Z,9.10
2023-04-16T02:03:48.247Z,9.10
2023-04-16T02:06:15.445Z,9.20
2023-04-16T02:08:42.250Z,9.20
2023-04-16T02:11:09.001Z,9.20
2023-04-16T02:13:35.653Z,9.20
2023-04-16T02:16:02.687Z,9.30
2023-04-16T02:18:29.426Z,9.30
2023-04-16T02:20:58.479Z,9.30
2023-04-16T02:23:25.282Z,9.30
2023-04-16T02:25:51.965Z,9.30
2023-04-16T02:28:18.643Z,9.30
2023-04-16T02:30:45.601Z,9.30
2023-04-16T02:33:12.925Z,9.30
2023-04-16T02:35:40.813Z,9.30
2023-04-16T02:38:08.584Z,9.20
2023-04-16T02:40:35.563Z,9.20
2023-04-16T02:43:02.290Z,9.20
2023-04-16T02:45:29.062Z,9.20
2023-04-16T02:47:55.762Z,9.20
2023-04-16T02:50:22.545Z,9.20
2023-04-16T02:52:49.264Z,9.20
2023-04-16T02:55:16.046Z,9.20
2023-04-16T02:57:42.764Z,9.20
2023-04-16T03:00:10.009Z,9.20
2023-04-16T03:02:36.879Z,9.20
2023-04-16T03:05:04.245Z,9.20
2023-04-16T03:07:30.904Z,9.20
2023-04-16T03:09:57.546Z,9.20
2023-04-16T03:12:24.282Z,9.20
2023-04-16T03:14:52.666Z,9.20
2023-04-16T03:17:19.451Z,9.20
2023-04-16T03:19:46.218Z,9.20
2023-04-16T03:22:12.957Z,9.20
2023-04-16T03:24:39.694Z,9.30
2023-04-16T03:27:06.377Z,9.30
2023-04-16T03:29:33.066Z,9.20
2023-04-16T03:31:59.726Z,9.20
2023-04-16T03:34:26.833Z,9.20
2023-04-16T03:36:53.493Z,9.20
2023-04-16T03:39:20.555Z,9.20
2023-04-16T03:41:47.251Z,9.20
2023-04-16T03:44:13.923Z,9.20
2023-04-16T03:46:40.651Z,9.30
2023-04-16T03:49:07.955Z,9.30
2023-04-16T03:51:35.088Z,9.30
2023-04-16T03:54:01.779Z,9.30
2023-04-16T03:56:28.428Z,9.30
2023-04-16T03:58:55.114Z,9.30
2023-04-16T04:01:21.813Z,9.20
2023-04-16T04:03:48.589Z,9.20
2023-04-16T04:06:15.480Z,9.20
2023-04-16T04:08:43.241Z,9.20
2023-04-16T04:11:09.905Z,9.10
2023-04-16T04:13:36.565Z,9.20
2023-04-16T04:16:03.353Z,9.10
2023-04-16T04:18:30.120Z,9.20
2023-04-16T04:20:57.161Z,9.20
2023-04-16T04:23:24.210Z,9.20
2023-04-16T04:25:50.989Z,9.20
2023-04-16T04:28:17.666Z,9.20
2023-04-16T04:30:44.324Z,9.10
2023-04-16T04:33:11.042Z,9.10
2023-04-16T04:35:37.738Z,9.10
2023-04-16T04:38:05.244Z,9.10
2023-04-16T04:40:31.967Z,9.10
2023-04-16T04:42:58.637Z,9.10
2023-04-16T04:45:25.656Z,9.10
2023-04-16T04:47:53.159Z,9.10
2023-04-16T04:50:19.929Z,9.10
2023-04-16T04:52:46.573Z,9.10
2023-04-16T04:55:15.732Z,9.10
2023-04-16T04:57:42.687Z,9.10
2023-04-16T05:00:10.073Z,9.10
2023-04-16T05:02:36.996Z,9.10
2023-04-16T05:05:04.748Z,9.10
2023-04-16T05:07:32.208Z,9.10
2023-04-16T05:09:59.008Z,9.10
2023-04-16T05:12:25.776Z,9.10
2023-04-16T05:14:52.487Z,9.10
2023-04-16T05:17:19.123Z,9.20
2023-04-16T05:19:45.824Z,9.20
2023-04-16T05:22:12.648Z,9.30
2023-04-16T05:24:39.310Z,9.30
2023-04-16T05:27:06.484Z,9.30
2023-04-16T05:29:33.135Z,9.30
2023-04-16T05:31:59.834Z,9.30
2023-04-16T05:34:26.493Z,9.30
2023-04-16T05:36:53.134Z,9.40
2023-04-16T05:39:20.197Z,9.40
2023-04-16T05:41:46.959Z,9.40
2023-04-16T05:44:15.186Z,9.40
2023-04-16T05:46:41.879Z,9.40
2023-04-16T05:49:08.816Z,9.40
2023-04-16T05:51:35.904Z,9.40
2023-04-16T05:54:02.625Z,9.30
2023-04-16T05:56:29.354Z,9.30
2023-04-16T05:58:55.990Z,9.30
2023-04-16T06:01:22.975Z,9.30
2023-04-16T06:03:49.759Z,9.30
2023-04-16T06:06:16.545Z,9.30
2023-04-16T06:08:43.193Z,9.40
2023-04-16T06:11:09.977Z,9.40
2023-04-16T06:13:37.363Z,9.40
2023-04-16T06:16:04.257Z,9.40
2023-04-16T06:18:31.200Z,9.40
2023-04-16T06:20:59.299Z,9.40
2023-04-16T06:23:26.036Z,9.40
2023-04-16T06:25:52.766Z,9.40
2023-04-16T06:28:19.520Z,9.40
2023-04-16T06:30:47.095Z,9.30
2023-04-16T06:33:13.895Z,9.30
2023-04-16T06:35:40.853Z,9.40
2023-04-16T06:38:07.532Z,9.40
2023-04-16T06:40:34.340Z,9.40
2023-04-16T06:43:01.111Z,9.30
2023-04-16T06:45:27.759Z,9.40
2023-04-16T06:47:54.514Z,9.40
2023-04-16T06:50:22.180Z,9.40
2023-04-16T06:52:48.855Z,9.40
2023-04-16T06:55:15.522Z,9.40
2023-04-16T06:57:42.153Z,9.40
2023-04-16T07:00:09.238Z,9.40
2023-04-16T07:02:35.987Z,9.30
2023-04-16T07:05:02.875Z,9.40
2023-04-16T07:07:29.535Z,9.30
2023-04-16T07:09:56.176Z,9.40
2023-04-16T07:12:23.081Z,9.40
2023-04-16T07:14:49.932Z,9.40
2023-04-16T07:17:16.649Z,9.40
2023-04-16T07:19:43.291Z,9.40
2023-04-16T07:22:09.958Z,9.40
2023-04-16T07:24:36.633Z,9.40
2023-04-16T07:27:03.343Z,9.50
2023-04-16T07:29:30.031Z,9.50
2023-04-16T07:31:57.637Z,9.50
2023-04-16T07:34:24.385Z,9.60
2023-04-16T07:36:51.036Z,9.60
2023-04-16T07:39:17.683Z,9.70
2023-04-16T07:41:44.377Z,9.70
2023-04-16T07:44:11.119Z,9.70
2023-04-16T07:46:46.130Z,9.80
2023-04-16T07:49:13.942Z,9.80
2023-04-16T07:51:40.708Z,9.80
2023-04-16T07:54:07.359Z,9.90
2023-04-16T07:56:33.994Z,9.90
2023-04-16T07:59:07.873Z,9.90
2023-04-16T08:01:45.924Z,9.90
2023-04-16T08:04:12.685Z,10.00
2023-04-16T08:06:39.417Z,10.00
2023-04-16T08:09:06.338Z,10.10
2023-04-16T08:11:33.150Z,10.10
2023-04-16T08:13:59.814Z,10.10
2023-04-16T08:16:26.565Z,10.10
2023-04-16T08:18:53.272Z,10.20
2023-04-16T08:21:19.941Z,10.20
2023-04-16T08:23:46.615Z,10.30
2023-04-16T08:26:13.331Z,10.40
2023-04-16T08:28:39.975Z,10.40
2023-04-16T08:31:06.707Z,10.40
2023-04-16T08:33:33.446Z,10.60
2023-04-16T08:36:00.208Z,10.70
2023-04-16T08:38:27.167Z,10.80
2023-04-16T08:40:55.039Z,10.90
2023-04-16T08:43:23.758Z,11.00
2023-04-16T08:45:53.517Z,11.10
2023-04-16T08:48:22.012Z,11.20
2023-04-16T08:50:52.662Z,11.30
2023-04-16T08:53:27.380Z,11.30
2023-04-16T08:55:59.181Z,11.30
2023-04-16T08:58:31.783Z,11.40
2023-04-16T09:00:58.498Z,11.40
2023-04-16T09:03:25.310Z,11.50
2023-04-16T09:05:53.374Z,11.50
2023-04-16T09:08:21.215Z,11.60
2023-04-16T09:10:49.282Z,11.60
2023-04-16T09:13:20.273Z,11.60
2023-04-16T09:15:47.384Z,11.50
2023-04-16T09:18:14.136Z,11.50
2023-04-16T09:20:40.866Z,11.50
2023-04-16T09:23:07.511Z,11.50
2023-04-16T09:25:34.897Z,11.60
2023-04-16T09:28:01.726Z,11.50
2023-04-16T09:30:28.906Z,11.50
2023-04-16T09:33:23.285Z,11.60
2023-04-16T09:35:52.082Z,11.70
2023-04-16T09:38:19.902Z,11.90
2023-04-16T09:40:49.460Z,11.90
2023-04-16T09:43:18.580Z,11.70
2023-04-16T09:45:53.512Z,11.60
2023-04-16T09:48:31.492Z,11.70
2023-04-16T09:50:59.370Z,11.80
2023-04-16T09:53:27.859Z,11.90
2023-04-16T09:55:58.880Z,12.10
2023-04-16T09:58:26.200Z,12.10
2023-04-16T10:01:07.460Z,11.90
2023-04-16T10:03:35.656Z,12.00
2023-04-16T10:06:18.128Z,12.10
2023-04-16T10:08:53.089Z,11.90
2023-04-16T10:11:21.319Z,11.80
2023-04-16T10:13:48.482Z,11.80
2023-04-16T10:16:15.382Z,12.10
2023-04-16T10:18:43.810Z,12.30
2023-04-16T10:21:15.361Z,12.50
2023-04-16T10:23:43.807Z,12.70
2023-04-16T10:26:10.876Z,12.80
2023-04-16T10:28:37.852Z,12.90
2023-04-16T10:31:08.248Z,13.10
2023-04-16T10:33:37.229Z,13.20
2023-04-16T10:36:12.870Z,13.20
2023-04-16T10:38:50.239Z,13.20
2023-04-16T10:41:17.147Z,13.30
2023-04-16T10:43:45.403Z,13.50
2023-04-16T10:46:34.178Z,13.60
2023-04-16T10:49:02.752Z,13.50
2023-04-16T10:51:32.228Z,13.50
2023-04-16T10:54:03.674Z,13.50
2023-04-16T10:56:33.405Z,13.50
2023-04-16T10:59:00.071Z,13.40
2023-04-16T11:01:37.106Z,13.30
2023-04-16T11:04:24.075Z,13.30
2023-04-16T11:07:19.606Z,13.10
2023-04-16T11:10:06.149Z,13.00
2023-04-16T11:12:37.720Z,12.90
2023-04-16T11:15:12.448Z,12.80
2023-04-16T11:17:50.339Z,12.70
2023-04-16T11:20:25.723Z,12.60
2023-04-16T11:22:54.930Z,12.60
2023-04-16T11:25:26.294Z,12.50
2023-04-16T11:27:53.828Z,12.70
2023-04-16T11:30:36.567Z,12.90
2023-04-16T11:33:04.635Z,13.10
2023-04-16T11:35:31.495Z,13.30
2023-04-16T11:37:58.698Z,13.40
2023-04-16T11:40:29.173Z,13.40
2023-04-16T11:42:56.852Z,13.50
2023-04-16T11:45:24.336Z,13.60
2023-04-16T11:47:53.384Z,13.60
2023-04-16T11:50:22.361Z,13.60
2023-04-16T11:52:53.985Z,13.60
2023-04-16T11:55:21.297Z,13.60
2023-04-16T11:57:48.778Z,13.60
2023-04-16T12:00:15.757Z,13.60
2023-04-16T12:02:42.497Z,13.50
2023-04-16T12:05:32.564Z,13.40
2023-04-16T12:08:01.233Z,13.40
2023-04-16T12:10:28.497Z,13.30
2023-04-16T12:13:13.784Z,13.30
2023-04-16T12:15:45.884Z,13.30
2023-04-16T12:18:12.730Z,13.20
2023-04-16T12:20:43.677Z,13.20
2023-04-16T12:23:22.009Z,13.20
2023-04-16T12:25:50.011Z,13.30
2023-04-16T12:28:31.181Z,13.30
2023-04-16T12:30:58.033Z,13.30
2023-04-16T12:33:25.066Z,13.40
2023-04-16T12:35:52.519Z,13.40
2023-04-16T12:38:19.408Z,13.40
2023-04-16T12:40:46.206Z,13.30
2023-04-16T12:43:13.505Z,13.30
2023-04-16T12:45:40.923Z,13.20
2023-04-16T12:48:08.729Z,13.30
2023-04-16T12:50:35.495Z,13.40
2023-04-16T12:53:02.305Z,13.40
2023-04-16T12:55:29.016Z,13.40
2023-04-16T12:57:55.934Z,13.60
2023-04-16T13:00:22.725Z,13.80
2023-04-16T13:02:49.520Z,14.00
2023-04-16T13:05:18.954Z,14.00
2023-04-16T13:07:45.869Z,14.10
2023-04-16T13:10:12.933Z,14.10
2023-04-16T13:12:39.711Z,14.30
2023-04-16T13:15:06.853Z,14.40
2023-04-16T13:17:33.631Z,14.50
2023-04-16T13:20:00.311Z,14.60
2023-04-16T13:22:26.958Z,14.60
2023-04-16T13:24:53.644Z,14.60
2023-04-16T13:27:20.353Z,14.60
2023-04-16T13:29:47.161Z,14.70
2023-04-16T13:32:14.709Z,14.70
2023-04-16T13:34:41.479Z,14.70
2023-04-16T13:37:08.154Z,14.70
2023-04-16T13:39:34.848Z,14.80
2023-04-16T13:42:02.681Z,14.70
2023-04-16T13:44:29.517Z,14.70
2023-04-16T13:46:56.675Z,14.70
2023-04-16T13:49:23.540Z,14.70
2023-04-16T13:51:50.580Z,14.60
2023-04-16T13:54:17.290Z,14.60
2023-04-16T13:56:44.055Z,14.40
2023-04-16T13:59:11.091Z,14.30
2023-04-16T14:01:38.308Z,14.10
2023-04-16T14:04:06.767Z,14.10
2023-04-16T14:06:34.733Z,14.10
2023-04-16T14:09:01.894Z,14.10
2023-04-16T14:11:28.839Z,14.10
2023-04-16T14:13:55.966Z,13.90
2023-04-16T14:16:22.953Z,13.80
2023-04-16T14:18:51.678Z,13.60
2023-04-16T14:21:18.331Z,13.50
2023-04-16T14:23:45.296Z,13.50
2023-04-16T14:26:12.046Z,13.40
2023-04-16T14:28:40.004Z,13.10
2023-04-16T14:31:06.828Z,13.00
2023-04-16T14:33:33.890Z,12.90
2023-04-16T14:36:02.777Z,12.90
2023-04-16T14:38:30.319Z,13.00
2023-04-16T14:40:57.009Z,13.10
2023-04-16T14:43:23.745Z,13.10
2023-04-16T14:45:50.979Z,13.20
2023-04-16T14:48:17.765Z,13.40
2023-04-16T14:50:44.710Z,13.50
2023-04-16T14:53:11.948Z,13.60
2023-04-16T14:55:38.709Z,13.50
2023-04-16T14:58:05.509Z,13.40
2023-04-16T15:00:34.786Z,13.40
2023-04-16T15:03:01.651Z,13.50
2023-04-16T15:05:29.617Z,13.50
2023-04-16T15:07:56.489Z,13.60
2023-04-16T15:10:23.200Z,13.50
2023-04-16T15:12:49.816Z,13.50
2023-04-16T15:15:16.536Z,13.50
2023-04-16T15:17:43.687Z,13.50
2023-04-16T15:20:10.904Z,13.50
2023-04-16T15:22:38.165Z,13.50
2023-04-16T15:25:06.291Z,13.40
2023-04-16T15:27:32.985Z,13.40
2023-04-16T15:29:59.735Z,13.30
2023-04-16T15:32:26.535Z,13.20
2023-04-16T15:34:53.264Z,13.00
2023-04-16T15:37:19.979Z,12.70
2023-04-16T15:39:46.748Z,12.60
2023-04-16T15:42:13.432Z,12.50
2023-04-16T15:44:40.484Z,12.30
2023-04-16T15:47:08.448Z,12.30
2023-04-16T15:49:35.985Z,12.30
2023-04-16T15:52:03.087Z,12.30
2023-04-16T15:54:31.654Z,12.30
2023-04-16T15:56:58.825Z,12.20
2023-04-16T15:59:26.870Z,12.20
2023-04-16T16:01:53.813Z,12.30
2023-04-16T16:04:22.803Z,12.30
2023-04-16T16:06:51.034Z,12.30
2023-04-16T16:09:18.440Z,12.30
2023-04-16T16:11:45.065Z,12.20
2023-04-16T16:14:11.742Z,12.20
2023-04-16T16:16:39.487Z,12.20
2023-04-16T16:19:06.846Z,12.10
2023-04-16T16:21:33.750Z,12.10
2023-04-16T16:24:00.466Z,12.00
2023-04-16T16:26:27.152Z,12.00
2023-04-16T16:28:53.864Z,12.00
2023-04-16T16:31:20.816Z,11.90
2023-04-16T16:33:47.515Z,11.90
2023-04-16T16:36:14.293Z,11.90
2023-04-16T16:38:42.399Z,11.90
2023-04-16T16:41:09.092Z,11.90
2023-04-16T16:43:38.858Z,11.90
2023-04-16T16:46:07.286Z,11.90
2023-04-16T16:48:34.014Z,11.90
2023-04-16T16:51:00.656Z,11.90
2023-04-16T16:53:27.496Z,11.90
2023-04-16T16:55:54.126Z,11.90
2023-04-16T16:58:20.806Z,11.80
2023-04-16T17:00:47.570Z,11.80
2023-04-16T17:03:14.475Z,11.80
2023-04-16T17:05:41.370Z,11.70
2023-04-16T17:08:08.066Z,11.70
2023-04-16T17:10:35.822Z,11.70
2023-04-16T17:13:02.579Z,11.70
2023-04-16T17:15:29.353Z,11.60
2023-04-16T17:17:57.146Z,11.60
2023-04-16T17:20:23.985Z,11.50
2023-04-16T17:22:51.193Z,11.60
2023-04-16T17:25:18.037Z,11.60
2023-04-16T17:27:44.689Z,11.50
2023-04-16T17:30:11.695Z,11.40
2023-04-16T17:32:38.408Z,11.50
2023-04-16T17:35:06.788Z,11.50
2023-04-16T17:37:33.513Z,11.40
2023-04-16T17:40:00.352Z,11.40
2023-04-16T17:42:27.030Z,11.30
2023-04-16T17:44:56.271Z,11.30
2023-04-16T17:47:22.942Z,11.30
2023-04-16T17:49:53.376Z,11.30
2023-04-16T17:52:21.327Z,11.30
2023-04-16T17:54:48.649Z,11.30
2023-04-16T17:57:15.522Z,11.30
2023-04-16T17:59:42.679Z,11.30
2023-04-16T18:02:09.415Z,11.30
2023-04-16T18:04:36.359Z,11.20
2023-04-16T18:07:03.077Z,11.20
2023-04-16T18:09:30.573Z,11.20
2023-04-16T18:11:57.476Z,11.20
2023-04-16T18:14:24.181Z,11.20
2023-04-16T18:16:50.860Z,11.10
2023-04-16T18:19:17.516Z,11.20
2023-04-16T18:21:45.016Z,11.20
2023-04-16T18:24:12.118Z,11.10
2023-04-16T18:26:40.940Z,11.10
2023-04-16T18:29:07.988Z,11.10
2023-04-16T18:31:34.769Z,11.00
2023-04-16T18:34:01.576Z,11.10
2023-04-16T18:36:28.378Z,11.00
2023-04-16T18:39:02.220Z,11.00
2023-04-16T18:41:30.644Z,11.10
2023-04-16T18:43:57.409Z,11.10
2023-04-16T18:46:25.112Z,11.10
2023-04-16T18:48:52.092Z,11.00
2023-04-16T18:51:19.022Z,11.00
2023-04-16T18:53:45.936Z,11.00
2023-04-16T18:56:12.853Z,11.10
2023-04-16T18:58:39.610Z,11.10
2023-04-16T19:01:10.970Z,11.10
2023-04-16T19:03:38.105Z,11.00
2023-04-16T19:06:05.852Z,11.10
2023-04-16T19:08:32.648Z,11.00
2023-04-16T19:10:59.305Z,11.10
2023-04-16T19:13:26.022Z,11.00
2023-04-16T19:15:58.670Z,11.00
2023-04-16T19:18:25.457Z,11.00
2023-04-16T19:20:58.035Z,11.00
2023-04-16T19:23:24.724Z,11.00
2023-04-16T19:25:51.423Z,10.90
2023-04-16T19:28:18.476Z,11.00
2023-04-16T19:30:46.646Z,11.00
2023-04-16T19:33:13.571Z,10.90
2023-04-16T19:35:43.104Z,10.90
2023-04-16T19:38:10.942Z,10.90
2023-04-16T19:40:38.302Z,10.80
2023-04-16T19:43:05.020Z,10.80
2023-04-16T19:45:31.977Z,10.80
2023-04-16T19:47:58.946Z,10.80
2023-04-16T19:50:25.592Z,10.80
2023-04-16T19:52:52.222Z,10.80
2023-04-16T19:55:19.085Z,10.70
2023-04-16T19:57:47.971Z,10.70
2023-04-16T20:00:15.028Z,10.70
2023-04-16T20:02:41.950Z,10.70
2023-04-16T20:05:09.276Z,10.70
2023-04-16T20:07:36.076Z,10.70
2023-04-16T20:10:03.017Z,10.70
2023-04-16T20:12:29.730Z,10.70
2023-04-16T20:14:56.472Z,10.60
2023-04-16T20:17:23.169Z,10.60
2023-04-16T20:19:51.097Z,10.60
2023-04-16T20:22:18.657Z,10.60
2023-04-16T20:24:47.814Z,10.50
2023-04-16T20:27:15.329Z,10.50
2023-04-16T20:29:42.359Z,10.50
2023-04-16T20:32:09.245Z,10.50
2023-04-16T20:34:36.686Z,10.50
2023-04-16T20:37:03.966Z,10.50
2023-04-16T20:39:34.039Z,10.50
2023-04-16T20:42:04.126Z,10.50
2023-04-16T20:44:40.244Z,10.50
2023-04-16T20:47:14.815Z,10.50
2023-04-16T20:49:47.712Z,10.50
2023-04-16T20:52:15.985Z,10.50
2023-04-16T20:54:42.640Z,10.50
2023-04-16T20:57:09.310Z,10.50
2023-04-16T20:59:38.720Z,10.50
2023-04-16T21:02:05.847Z,10.50
2023-04-16T21:04:32.787Z,10.40
2023-04-16T21:07:03.081Z,10.40
2023-04-16T21:09:30.854Z,10.40
2023-04-16T21:11:57.702Z,10.40
2023-04-16T21:14:24.440Z,10.40
2023-04-16T21:16:51.192Z,10.40
2023-04-16T21:19:17.847Z,10.40
2023-04-16T21:21:44.548Z,10.40
2023-04-16T21:24:11.217Z,10.40
2023-04-16T21:26:37.870Z,10.40
2023-04-16T21:29:04.521Z,10.40
2023-04-16T21:31:31.205Z,10.40
2023-04-16T21:33:57.824Z,10.40
2023-04-16T21:36:26.512Z,10.40
2023-04-16T21:38:53.128Z,10.40
2023-04-16T21:41:19.764Z,10.40
2023-04-16T21:43:46.420Z,10.40
2023-04-16T21:46:13.152Z,10.30
2023-04-16T21:48:39.800Z,10.30
2023-04-16T21:51:06.703Z,10.30
2023-04-16T21:53:34.135Z,10.30
2023-04-16T21:56:00.873Z,10.30
2023-04-16T21:58:27.721Z,10.30
2023-04-16T22:00:54.544Z,10.30
2023-04-16T22:03:27.545Z,10.30
2023-04-16T22:06:00.604Z,10.30
2023-04-16T22:08:30.990Z,10.30
2023-04-16T22:11:02.392Z,10.30
2023-04-16T22:13:32.350Z,10.30
2023-04-16T22:16:02.648Z,10.30
2023-04-16T22:18:32.932Z,10.30
2023-04-16T22:21:00.095Z,10.30
2023-04-16T22:23:26.765Z,10.30
2023-04-16T22:25:55.922Z,10.30
2023-04-16T22:28:22.949Z,10.30
2023-04-16T22:30:49.793Z,10.30
2023-04-16T22:33:16.601Z,10.20
2023-04-16T22:35:43.342Z,10.30
2023-04-16T22:38:10.637Z,10.20
2023-04-16T22:40:37.454Z,10.20
2023-04-16T22:43:04.643Z,10.30
2023-04-16T22:45:31.368Z,10.20
2023-04-16T22:47:58.053Z,10.20
2023-04-16T22:50:24.836Z,10.20
2023-04-16T22:52:51.478Z,10.20
2023-04-16T22:55:18.219Z,10.20
2023-04-16T22:57:44.869Z,10.20
2023-04-16T23:00:16.460Z,10.20
2023-04-16T23:02:44.190Z,10.20
2023-04-16T23:05:11.626Z,10.20
2023-04-16T23:07:38.445Z,10.20
2023-04-16T23:10:05.788Z,10.20
2023-04-16T23:12:32.486Z,10.20
2023-04-16T23:15:00.481Z,10.20
2023-04-16T23:17:28.046Z,10.20
2023-04-16T23:19:54.923Z,10.20
2023-04-16T23:22:21.582Z,10.20
2023-04-16T23:24:48.238Z,10.20
2023-04-16T23:27:14.911Z,10.10
2023-04-16T23:29:41.538Z,10.10
2023-04-16T23:32:08.197Z,10.10
2023-04-16T23:34:34.837Z,10.10
2023-04-16T23:37:01.569Z,10.10
2023-04-16T23:39:28.254Z,10.10
2023-04-16T23:41:54.876Z,10.10
2023-04-16T23:44:21.511Z,10.10
2023-04-16T23:46:48.184Z,10.10
2023-04-16T23:49:14.978Z,10.10
2023-04-16T23:51:41.619Z,10.20
2023-04-16T23:54:08.321Z,10.10
2023-04-16T23:56:35.384Z,10.20
2023-04-16T23:59:02.022Z,10.20
